KMKC/MKC METAR and TAF weather

Enter ICAO airport designator
Station Type Date Time Source
KMKC METAR 2019/12/08 23:54 UTC NOAA

KMKC 082354Z 00000KT 10SM OVC024 10/07 A2969 RMK AO2 SLP055 T01000067 10111 20094 58009


Station Type Date Time Source
KMKC Decoded METAR 2019/12/08 23:54 UTC NOAA

KANSAS CITY DOWNTOWN AIRPORT , MO, United States (KMKC) 39-07N 094-36W 227M
Dec 08, 2019 - 06:54 PM EST / 2019.12.08 2354 UTC
Wind: Calm:0
Visibility: 10 mile(s):0
Sky conditions: overcast
Temperature: 50.0 F (10.0 C)
Dew Point: 44.1 F (6.7 C)
Relative Humidity: 79%
Pressure (altimeter): 29.69 in. Hg (1005 hPa)
Pressure tendency: 0.03 inches (0.9 hPa) lower than three hours ago
ob: KMKC 082354Z 00000KT 10SM OVC024 10/07 A2969 RMK AO2 SLP055 T01000067 10111 20094 58009
cycle: 0

Station Type Date Time Source
KMKC TAF 2019/12/08 19:54 UTC NOAA

TAF
AMD KMKC 081850Z 0819/0918 21012KT P6SM OVC015
FM090000 18006KT P6SM BKN035 BKN120
FM090300 17005KT P6SM BKN015
FM090800 32008KT 5SM BR OVC008
FM091400 32015G25KT P6SM OVC020

Example: see airport list